createdAt,value
2018-03-24T00:01:24.429Z,8.65
2018-03-24T00:03:51.066Z,6.82
2018-03-24T00:06:17.604Z,6.82
2018-03-24T00:08:44.142Z,7.25
2018-03-24T00:11:10.947Z,8.60
2018-03-24T00:13:37.490Z,7.60
2018-03-24T00:16:04.510Z,7.78
2018-03-24T00:18:31.215Z,7.15
2018-03-24T00:20:57.684Z,7.62
2018-03-24T00:23:24.446Z,6.82
2018-03-24T00:25:51.154Z,8.00
2018-03-24T00:28:17.850Z,7.70
2018-03-24T00:30:44.922Z,8.77
2018-03-24T00:33:11.780Z,9.23
2018-03-24T00:35:38.368Z,8.63
2018-03-24T00:38:05.117Z,8.57
2018-03-24T00:40:32.116Z,8.63
2018-03-24T00:42:59.016Z,7.37
2018-03-24T00:45:25.759Z,7.53
2018-03-24T00:47:52.221Z,8.43
2018-03-24T00:50:18.862Z,7.70
2018-03-24T00:52:45.747Z,7.68
2018-03-24T00:55:12.949Z,7.97
2018-03-24T00:57:39.742Z,7.50
2018-03-24T01:00:06.512Z,7.37
2018-03-24T01:02:33.306Z,8.05
2018-03-24T01:04:59.861Z,7.25
2018-03-24T01:07:26.362Z,6.95
2018-03-24T01:09:53.012Z,7.25
2018-03-24T01:12:19.624Z,8.15
2018-03-24T01:14:46.005Z,8.65
2018-03-24T01:17:12.786Z,7.10
2018-03-24T01:19:39.183Z,8.18
2018-03-24T01:22:05.972Z,7.90
2018-03-24T01:24:32.588Z,8.38
2018-03-24T01:26:58.976Z,7.82
2018-03-24T01:29:26.035Z,7.60
2018-03-24T01:31:52.859Z,7.93
2018-03-24T01:34:20.041Z,8.70
2018-03-24T01:36:46.641Z,8.48
2018-03-24T01:39:13.121Z,9.25
2018-03-24T01:41:39.508Z,8.25
2018-03-24T01:44:06.770Z,7.62
2018-03-24T01:46:33.727Z,8.40
2018-03-24T01:49:00.351Z,7.37
2018-03-24T01:51:26.967Z,7.93
2018-03-24T01:53:53.857Z,7.65
2018-03-24T01:56:20.405Z,7.32
2018-03-24T01:58:47.086Z,7.28
2018-03-24T02:01:13.868Z,6.95
2018-03-24T02:03:40.524Z,8.10
2018-03-24T02:06:07.152Z,7.93
2018-03-24T02:11:07.537Z,8.20
2018-03-24T02:13:34.003Z,7.30
2018-03-24T02:16:00.676Z,7.70
2018-03-24T02:18:27.487Z,8.50
2018-03-24T02:20:55.061Z,8.10
2018-03-24T02:23:21.820Z,8.10
2018-03-24T02:25:48.470Z,7.87
2018-03-24T02:28:15.153Z,8.93
2018-03-24T02:30:41.832Z,9.13
2018-03-24T02:33:08.477Z,9.13
2018-03-24T02:35:35.202Z,10.80
2018-03-24T02:38:01.791Z,10.48
2018-03-24T02:40:28.742Z,10.70
2018-03-24T02:42:55.694Z,10.77
2018-03-24T02:45:22.726Z,11.35
2018-03-24T02:47:49.746Z,11.65
2018-03-24T02:50:16.403Z,11.55
2018-03-24T02:52:43.393Z,10.38
2018-03-24T02:55:10.537Z,10.70
2018-03-24T02:57:37.461Z,10.57
2018-03-24T03:00:04.153Z,10.88
2018-03-24T03:02:30.891Z,11.12
2018-03-24T03:04:57.722Z,10.10
2018-03-24T03:07:24.240Z,12.90
2018-03-24T03:09:50.827Z,11.23
2018-03-24T03:12:17.769Z,11.07
2018-03-24T03:14:44.606Z,11.90
2018-03-24T03:17:11.595Z,11.15
2018-03-24T03:19:38.442Z,10.73
2018-03-24T03:22:05.515Z,10.75
2018-03-24T03:24:32.188Z,10.52
2018-03-24T03:26:58.594Z,11.70
2018-03-24T03:29:25.080Z,11.10
2018-03-24T03:31:52.685Z,10.40
2018-03-24T03:34:19.892Z,10.35
2018-03-24T03:36:46.298Z,10.25
2018-03-24T03:39:13.296Z,10.00
2018-03-24T03:41:39.858Z,10.07
2018-03-24T03:44:06.532Z,10.77
2018-03-24T03:46:33.393Z,10.57
2018-03-24T03:49:00.027Z,11.10
2018-03-24T03:51:26.743Z,10.23
2018-03-24T03:53:53.509Z,10.35
2018-03-24T03:56:20.107Z,9.75
2018-03-24T03:58:46.691Z,11.15
2018-03-24T04:01:13.279Z,10.45
2018-03-24T04:03:40.567Z,10.48
2018-03-24T04:06:07.203Z,10.07
2018-03-24T04:08:34.175Z,10.35
2018-03-24T04:11:01.363Z,9.80
2018-03-24T04:13:28.116Z,10.10
2018-03-24T04:15:54.642Z,11.12
2018-03-24T04:18:21.342Z,9.95
2018-03-24T04:20:47.974Z,9.02
2018-03-24T04:23:14.803Z,11.10
2018-03-24T04:25:41.529Z,9.27
2018-03-24T04:28:09.119Z,10.30
2018-03-24T04:30:35.742Z,10.38
2018-03-24T04:33:02.975Z,9.95
2018-03-24T04:35:29.619Z,9.40
2018-03-24T04:37:56.484Z,10.48
2018-03-24T04:40:23.163Z,9.77
2018-03-24T04:42:49.851Z,10.20
2018-03-24T04:45:16.871Z,9.68
2018-03-24T04:47:44.200Z,9.60
2018-03-24T04:50:11.226Z,10.45
2018-03-24T04:52:37.679Z,10.20
2018-03-24T04:55:04.297Z,10.70
2018-03-24T04:57:30.883Z,11.07
2018-03-24T04:59:57.957Z,10.25
2018-03-24T05:02:24.365Z,8.85
2018-03-24T05:04:51.374Z,10.15
2018-03-24T05:07:17.843Z,9.85
2018-03-24T05:09:44.573Z,9.85
2018-03-24T05:12:11.662Z,10.18
2018-03-24T05:14:38.375Z,11.20
2018-03-24T05:17:05.050Z,9.82
2018-03-24T05:19:31.649Z,10.82
2018-03-24T05:21:58.519Z,10.93
2018-03-24T05:24:25.607Z,11.25
2018-03-24T05:26:52.409Z,12.35
2018-03-24T05:29:19.554Z,10.95
2018-03-24T05:31:46.513Z,10.07
2018-03-24T05:34:13.434Z,10.55
2018-03-24T05:36:40.171Z,10.25
2018-03-24T05:39:07.266Z,10.38
2018-03-24T05:41:34.036Z,11.43
2018-03-24T05:44:00.805Z,10.75
2018-03-24T05:46:27.457Z,10.98
2018-03-24T05:48:54.642Z,10.77
2018-03-24T05:51:21.489Z,10.30
2018-03-24T05:53:48.453Z,10.63
2018-03-24T05:56:15.343Z,9.70
2018-03-24T05:58:41.794Z,10.75
2018-03-24T06:01:08.590Z,9.90
2018-03-24T06:03:35.446Z,11.27
2018-03-24T06:06:01.848Z,10.88
2018-03-24T06:08:29.008Z,12.27
2018-03-24T06:10:55.702Z,10.95
2018-03-24T06:13:22.847Z,11.25
2018-03-24T06:15:49.501Z,11.38
2018-03-24T06:18:17.130Z,11.20
2018-03-24T06:20:45.378Z,10.80
2018-03-24T06:23:11.982Z,13.38
2018-03-24T06:25:38.629Z,11.40
2018-03-24T06:28:05.099Z,12.00
2018-03-24T06:30:33.649Z,11.27
2018-03-24T06:33:00.195Z,10.70
2018-03-24T06:35:27.026Z,10.98
2018-03-24T06:37:53.512Z,10.90
2018-03-24T06:40:20.180Z,10.80
2018-03-24T06:42:47.295Z,13.18
2018-03-24T06:45:14.009Z,11.55
2018-03-24T06:47:40.619Z,10.25
2018-03-24T06:50:07.210Z,14.30
2018-03-24T06:52:33.806Z,12.18
2018-03-24T06:55:00.442Z,9.57
2018-03-24T06:57:27.457Z,8.73
2018-03-24T06:59:54.730Z,10.23
2018-03-24T07:02:21.291Z,10.30
2018-03-24T07:04:48.019Z,12.00
2018-03-24T07:07:14.412Z,12.68
2018-03-24T07:09:40.932Z,12.07
2018-03-24T07:12:07.731Z,12.07
2018-03-24T07:14:34.300Z,12.80
2018-03-24T07:17:01.022Z,12.77
2018-03-24T07:19:27.512Z,12.35
2018-03-24T07:21:54.775Z,13.98
2018-03-24T07:24:21.482Z,13.23
2018-03-24T07:26:47.970Z,14.30
2018-03-24T07:29:15.007Z,16.90
2018-03-24T07:31:41.718Z,15.50
2018-03-24T07:34:08.597Z,12.98
2018-03-24T07:36:42.096Z,13.20
2018-03-24T07:39:08.701Z,12.40
2018-03-24T07:41:36.687Z,13.02
2018-03-24T07:44:03.522Z,13.93
2018-03-24T07:46:30.071Z,15.43
2018-03-24T07:48:56.865Z,13.73
2018-03-24T07:51:23.742Z,12.00
2018-03-24T07:53:50.347Z,11.98
2018-03-24T07:56:16.880Z,13.30
2018-03-24T07:58:43.436Z,14.23
2018-03-24T08:01:10.269Z,14.15
2018-03-24T08:03:37.130Z,13.80
2018-03-24T08:06:03.850Z,12.55
2018-03-24T08:08:30.862Z,12.68
2018-03-24T08:10:57.584Z,12.13
2018-03-24T08:13:24.081Z,12.18
2018-03-24T08:15:51.159Z,13.38
2018-03-24T08:18:17.811Z,11.77
2018-03-24T08:20:44.446Z,11.60
2018-03-24T08:23:11.308Z,12.05
2018-03-24T08:25:37.822Z,13.30
2018-03-24T08:28:04.345Z,13.00
2018-03-24T08:30:31.041Z,13.85
2018-03-24T08:32:57.745Z,13.07
2018-03-24T08:35:24.136Z,13.77
2018-03-24T08:37:50.893Z,13.48
2018-03-24T08:40:17.445Z,12.85
2018-03-24T08:42:44.172Z,13.35
2018-03-24T08:45:11.086Z,13.00
2018-03-24T08:47:37.680Z,12.18
2018-03-24T08:50:04.351Z,12.63
2018-03-24T08:52:30.756Z,12.98
2018-03-24T08:54:57.576Z,12.98
2018-03-24T08:57:24.335Z,12.90
2018-03-24T08:59:51.157Z,14.10
2018-03-24T09:02:17.638Z,13.48
2018-03-24T09:04:44.133Z,14.48
2018-03-24T09:07:10.924Z,14.38
2018-03-24T09:09:37.533Z,15.48
2018-03-24T09:12:04.051Z,14.82
2018-03-24T09:14:30.606Z,14.63
2018-03-24T09:16:57.273Z,15.32
2018-03-24T09:19:23.759Z,16.80
2018-03-24T09:21:51.393Z,14.87
2018-03-24T09:24:17.827Z,14.95
2018-03-24T09:26:44.306Z,16.60
2018-03-24T09:29:10.870Z,15.63
2018-03-24T09:31:37.271Z,15.68
2018-03-24T09:34:03.823Z,18.87
2018-03-24T09:36:30.229Z,19.45
2018-03-24T09:38:56.854Z,18.10
2018-03-24T09:41:23.371Z,17.70
2018-03-24T09:43:49.741Z,18.08
2018-03-24T09:46:16.219Z,16.83
2018-03-24T09:48:42.714Z,16.35
2018-03-24T09:51:09.067Z,18.23
2018-03-24T09:53:35.488Z,18.73
2018-03-24T09:56:02.034Z,17.10
2018-03-24T09:58:28.595Z,19.65
2018-03-24T10:00:55.370Z,21.98
2018-03-24T10:03:21.759Z,19.90
2018-03-24T10:05:48.228Z,17.87
2018-03-24T10:08:14.786Z,17.20
2018-03-24T10:10:41.479Z,17.50
2018-03-24T10:13:08.149Z,16.60
2018-03-24T10:18:07.863Z,16.67
2018-03-24T10:23:54.427Z,15.50
2018-03-24T10:26:21.080Z,15.98
2018-03-24T10:28:47.727Z,16.67
2018-03-24T10:31:14.299Z,15.23
2018-03-24T10:33:47.028Z,16.23
2018-03-24T10:36:13.535Z,14.32
2018-03-24T10:38:40.215Z,17.42
2018-03-24T10:41:06.649Z,15.25
2018-03-24T10:43:41.628Z,15.30
2018-03-24T10:46:08.750Z,15.63
2018-03-24T10:48:42.304Z,15.65
2018-03-24T10:51:08.793Z,14.20
2018-03-24T10:53:35.275Z,16.75
2018-03-24T10:56:01.963Z,14.75
2018-03-24T10:58:28.483Z,13.77
2018-03-24T11:01:01.053Z,14.10
2018-03-24T11:03:27.936Z,14.70
2018-03-24T11:05:54.556Z,15.15
2018-03-24T11:08:21.074Z,16.27
2018-03-24T11:10:47.474Z,18.27
2018-03-24T11:13:14.093Z,15.88
2018-03-24T11:15:40.542Z,18.58
2018-03-24T11:18:07.070Z,17.08
2018-03-24T11:20:33.527Z,18.33
2018-03-24T11:22:59.902Z,17.42
2018-03-24T11:25:28.543Z,17.20
2018-03-24T11:27:55.241Z,17.60
2018-03-24T11:30:22.534Z,16.12
2018-03-24T11:32:49.084Z,16.00
2018-03-24T11:35:15.498Z,16.20
2018-03-24T11:37:42.266Z,17.08
2018-03-24T11:40:08.812Z,16.80
2018-03-24T11:42:35.249Z,17.52
2018-03-24T11:45:01.956Z,20.42
2018-03-24T11:47:28.908Z,17.17
2018-03-24T11:49:55.638Z,16.62
2018-03-24T11:52:22.107Z,17.67
2018-03-24T11:54:49.217Z,17.62
2018-03-24T11:57:15.758Z,17.12
2018-03-24T11:59:42.250Z,17.98
2018-03-24T12:02:08.691Z,16.20
2018-03-24T12:04:35.329Z,16.87
2018-03-24T12:07:01.774Z,20.42
2018-03-24T12:09:28.255Z,18.50
2018-03-24T12:11:54.839Z,17.40
2018-03-24T12:14:21.349Z,16.92
2018-03-24T12:16:47.773Z,18.27
2018-03-24T12:19:14.408Z,17.77
2018-03-24T12:21:41.092Z,17.87
2018-03-24T12:24:07.919Z,17.65
2018-03-24T12:26:34.493Z,17.02
2018-03-24T12:29:01.037Z,17.35
2018-03-24T12:31:27.786Z,18.23
2018-03-24T12:33:54.209Z,18.35
2018-03-24T12:36:20.904Z,16.62
2018-03-24T12:38:47.418Z,16.87
2018-03-24T12:41:13.841Z,17.95
2018-03-24T12:43:40.215Z,17.80
2018-03-24T12:46:06.912Z,17.48
2018-03-24T12:48:33.440Z,18.20
2018-03-24T12:50:59.973Z,16.87
2018-03-24T12:53:26.381Z,16.40
2018-03-24T12:55:52.859Z,16.05
2018-03-24T12:58:26.429Z,16.48
2018-03-24T13:00:53.179Z,16.20
2018-03-24T13:03:19.762Z,15.38
2018-03-24T13:05:46.349Z,15.38
2018-03-24T13:08:12.974Z,17.33
2018-03-24T13:10:39.365Z,15.38
2018-03-24T13:13:05.750Z,15.10
2018-03-24T13:15:32.855Z,15.13
2018-03-24T13:17:59.290Z,16.98
2018-03-24T13:20:25.692Z,16.75
2018-03-24T13:22:52.131Z,18.52
2018-03-24T13:25:18.674Z,18.60
2018-03-24T13:27:45.173Z,17.75
2018-03-24T13:30:11.794Z,18.10
2018-03-24T13:32:45.566Z,16.67
2018-03-24T13:35:12.141Z,16.85
2018-03-24T13:37:38.605Z,19.73
2018-03-24T13:40:05.071Z,20.27
2018-03-24T13:42:31.637Z,19.52
2018-03-24T13:44:58.098Z,20.92
2018-03-24T13:47:24.709Z,20.83
2018-03-24T13:49:51.449Z,21.05
2018-03-24T13:52:18.054Z,19.55
2018-03-24T13:54:44.698Z,19.12
2018-03-24T13:57:11.305Z,17.12
2018-03-24T13:59:37.748Z,17.75
2018-03-24T14:02:04.343Z,18.65
2018-03-24T14:04:30.921Z,16.02
2018-03-24T14:06:57.586Z,17.52
2018-03-24T14:09:24.455Z,18.75
2018-03-24T14:11:51.146Z,18.00
2018-03-24T14:14:17.582Z,18.30
2018-03-24T14:16:44.285Z,15.82
2018-03-24T14:19:11.031Z,14.63
2018-03-24T14:21:37.741Z,13.90
2018-03-24T14:24:04.338Z,15.00
2018-03-24T14:26:30.810Z,16.35
2018-03-24T14:28:57.226Z,17.20
2018-03-24T14:31:23.874Z,17.45
2018-03-24T14:33:50.659Z,16.65
2018-03-24T14:36:17.201Z,18.45
2018-03-24T14:38:43.689Z,14.43
2018-03-24T14:41:10.290Z,16.25
2018-03-24T14:43:36.758Z,17.40
2018-03-24T14:46:03.242Z,17.17
2018-03-24T14:48:29.697Z,15.10
2018-03-24T14:50:56.093Z,15.73
2018-03-24T14:53:22.877Z,16.42
2018-03-24T14:55:49.563Z,16.15
2018-03-24T14:58:16.161Z,15.13
2018-03-24T15:00:43.007Z,18.85
2018-03-24T15:03:09.506Z,20.05
2018-03-24T15:05:36.110Z,18.27
2018-03-24T15:08:02.790Z,16.23
2018-03-24T15:10:29.146Z,12.70
2018-03-24T15:12:55.593Z,12.80
2018-03-24T15:15:22.124Z,13.18
2018-03-24T15:17:48.754Z,13.70
2018-03-24T15:20:15.464Z,13.62
2018-03-24T15:22:42.096Z,16.20
2018-03-24T15:25:08.488Z,17.10
2018-03-24T15:27:34.925Z,17.90
2018-03-24T15:30:13.863Z,15.35
2018-03-24T15:32:52.172Z,16.00
2018-03-24T15:35:32.706Z,15.00
2018-03-24T15:37:59.405Z,15.82
2018-03-24T15:40:25.987Z,14.07
2018-03-24T15:42:52.483Z,13.65
2018-03-24T15:45:18.982Z,11.38
2018-03-24T15:47:45.844Z,11.43
2018-03-24T15:50:12.394Z,12.07
2018-03-24T15:52:38.965Z,12.90
2018-03-24T15:55:05.383Z,11.40
2018-03-24T15:57:31.970Z,9.98
2018-03-24T15:59:58.396Z,10.18
2018-03-24T16:02:24.899Z,11.57
2018-03-24T16:04:51.405Z,10.85
2018-03-24T16:07:17.880Z,10.45
2018-03-24T16:09:44.638Z,10.70
2018-03-24T16:12:11.253Z,11.20
2018-03-24T16:14:37.881Z,10.13
2018-03-24T16:25:44.978Z,9.25
2018-03-24T16:28:11.444Z,11.98
2018-03-24T16:30:37.874Z,10.35
2018-03-24T16:33:04.836Z,11.70
2018-03-24T16:35:31.476Z,11.02
2018-03-24T16:37:58.205Z,8.60
2018-03-24T16:40:25.075Z,9.20
2018-03-24T16:42:52.155Z,8.70
2018-03-24T16:45:19.126Z,9.57
2018-03-24T16:47:45.990Z,10.38
2018-03-24T16:50:13.327Z,11.25
2018-03-24T16:52:40.274Z,11.50
2018-03-24T16:55:06.846Z,10.13
2018-03-24T16:57:33.863Z,10.27
2018-03-24T17:00:04.272Z,9.57
2018-03-24T17:02:31.460Z,8.85
2018-03-24T17:04:58.073Z,8.68
2018-03-24T17:07:24.819Z,9.18
2018-03-24T17:09:51.417Z,9.80
2018-03-24T17:12:23.599Z,10.10
2018-03-24T17:14:50.292Z,11.63
2018-03-24T17:17:18.105Z,11.85
2018-03-24T17:19:45.344Z,11.85
2018-03-24T17:22:15.112Z,9.60
2018-03-24T17:24:42.362Z,8.85
2018-03-24T17:27:09.506Z,8.40
2018-03-24T17:29:36.048Z,8.20
2018-03-24T17:32:03.116Z,9.90
2018-03-24T17:34:30.171Z,9.25
2018-03-24T17:36:58.301Z,10.68
2018-03-24T17:39:26.857Z,10.20
2018-03-24T17:41:54.589Z,10.68
2018-03-24T17:44:21.099Z,11.98
2018-03-24T17:46:48.022Z,11.38
2018-03-24T17:49:16.590Z,11.75
2018-03-24T17:51:45.165Z,12.18
2018-03-24T17:54:12.080Z,12.88
2018-03-24T17:56:38.528Z,16.90
2018-03-24T17:59:05.729Z,17.35
2018-03-24T18:01:32.769Z,16.90
2018-03-24T18:03:59.499Z,17.20
2018-03-24T18:06:26.385Z,20.77
2018-03-24T18:08:53.795Z,17.15
2018-03-24T18:11:20.324Z,17.60
2018-03-24T18:13:47.387Z,18.52
2018-03-24T18:16:14.136Z,17.60
2018-03-24T18:18:40.723Z,17.77
2018-03-24T18:21:08.704Z,17.77
2018-03-24T18:23:36.526Z,18.52
2018-03-24T18:26:03.332Z,18.17
2018-03-24T18:28:30.358Z,20.60
2018-03-24T18:30:57.262Z,21.30
2018-03-24T18:33:24.139Z,22.13
2018-03-24T18:35:51.258Z,20.35
2018-03-24T18:38:18.347Z,20.85
2018-03-24T18:40:46.762Z,22.58
2018-03-24T18:43:13.428Z,21.45
2018-03-24T18:45:40.815Z,23.98
2018-03-24T18:48:07.332Z,22.23
2018-03-24T18:50:34.027Z,21.92
2018-03-24T18:53:00.667Z,21.60
2018-03-24T18:55:28.202Z,21.58
2018-03-24T18:57:54.843Z,22.85
2018-03-24T19:00:22.116Z,25.35
2018-03-24T19:02:49.062Z,27.27
2018-03-24T19:05:16.106Z,24.58
2018-03-24T19:07:43.532Z,23.48
2018-03-24T19:10:10.379Z,23.50
2018-03-24T19:12:37.303Z,23.27
2018-03-24T19:15:04.826Z,22.23
2018-03-24T19:17:32.080Z,20.67
2018-03-24T19:19:59.604Z,21.05
2018-03-24T19:22:26.879Z,21.20
2018-03-24T19:24:54.163Z,21.15
2018-03-24T19:27:21.209Z,20.12
2018-03-24T19:29:49.001Z,23.10
2018-03-24T19:32:16.733Z,22.95
2018-03-24T19:34:43.327Z,23.42
2018-03-24T19:37:10.565Z,21.23
2018-03-24T19:39:37.927Z,20.80
2018-03-24T19:42:05.003Z,21.55
2018-03-24T19:44:31.872Z,18.90
2018-03-24T19:46:59.121Z,19.52
2018-03-24T19:49:26.510Z,19.42
2018-03-24T19:51:53.155Z,18.35
2018-03-24T19:54:20.023Z,18.20
2018-03-24T19:56:46.754Z,17.95
2018-03-24T19:59:13.456Z,18.20
2018-03-24T20:01:40.049Z,18.08
2018-03-24T20:04:06.965Z,18.45
2018-03-24T20:06:34.013Z,20.20
2018-03-24T20:09:00.771Z,18.40
2018-03-24T20:11:27.809Z,19.00
2018-03-24T20:13:54.902Z,21.87
2018-03-24T20:16:21.412Z,21.45
2018-03-24T20:18:47.998Z,21.87
2018-03-24T20:21:15.086Z,23.62
2018-03-24T20:23:41.649Z,27.27
2018-03-24T20:26:08.233Z,28.45
2018-03-24T20:28:35.304Z,29.35
2018-03-24T20:31:02.758Z,28.33
2018-03-24T20:33:30.276Z,26.83
2018-03-24T20:35:57.181Z,28.55
2018-03-24T20:38:24.600Z,28.17
2018-03-24T20:40:51.219Z,25.50
2018-03-24T20:43:19.087Z,29.23
2018-03-24T20:45:46.497Z,27.23
2018-03-24T20:48:13.730Z,25.90
2018-03-24T20:50:40.270Z,23.83
2018-03-24T20:53:06.975Z,26.12
2018-03-24T20:55:33.703Z,24.85
2018-03-24T20:58:00.763Z,25.80
2018-03-24T21:00:27.308Z,28.95
2018-03-24T21:02:54.955Z,29.77
2018-03-24T21:05:21.815Z,27.30
2018-03-24T21:07:48.309Z,27.77
2018-03-24T21:10:15.057Z,28.98
2018-03-24T21:12:41.553Z,28.08
2018-03-24T21:15:11.306Z,33.25
2018-03-24T21:17:38.388Z,31.80
2018-03-24T21:20:05.282Z,31.62
2018-03-24T21:22:31.882Z,31.08
2018-03-24T21:24:58.454Z,31.58
2018-03-24T21:27:25.311Z,30.35
2018-03-24T21:29:52.323Z,31.25
2018-03-24T21:32:19.110Z,32.50
2018-03-24T21:34:46.061Z,33.78
2018-03-24T21:37:13.277Z,33.03
2018-03-24T21:39:39.886Z,30.45
2018-03-24T21:42:06.459Z,22.17
2018-03-24T21:44:33.114Z,26.23
2018-03-24T21:47:00.151Z,26.20
2018-03-24T21:49:26.928Z,30.30
2018-03-24T21:51:53.573Z,20.23
2018-03-24T21:54:20.254Z,23.60
2018-03-24T21:56:46.781Z,19.37
2018-03-24T21:59:13.600Z,29.02
2018-03-24T22:01:40.130Z,29.27
2018-03-24T22:04:06.963Z,31.50
2018-03-24T22:06:33.833Z,33.28
2018-03-24T22:09:00.237Z,33.45
2018-03-24T22:11:27.197Z,28.60
2018-03-24T22:13:53.848Z,28.80
2018-03-24T22:16:20.534Z,27.90
2018-03-24T22:18:47.208Z,20.58
2018-03-24T22:21:13.824Z,22.25
2018-03-24T22:23:41.047Z,33.47
2018-03-24T22:26:07.498Z,30.10
2018-03-24T22:28:34.250Z,35.38
2018-03-24T22:31:01.218Z,31.05
2018-03-24T22:33:28.399Z,35.20
2018-03-24T22:35:54.835Z,35.45
2018-03-24T22:38:21.459Z,33.42
2018-03-24T22:40:47.981Z,32.67
2018-03-24T22:43:14.419Z,29.52
2018-03-24T22:45:41.063Z,28.55
2018-03-24T22:48:07.462Z,24.60
2018-03-24T22:50:34.187Z,26.23
2018-03-24T22:53:00.842Z,25.08
2018-03-24T22:55:27.346Z,24.75
2018-03-24T22:57:53.741Z,26.70
2018-03-24T23:00:20.911Z,25.05
2018-03-24T23:02:47.939Z,25.65
2018-03-24T23:05:14.504Z,24.75
2018-03-24T23:07:41.135Z,27.75
2018-03-24T23:10:07.686Z,25.77
2018-03-24T23:12:34.107Z,27.00
2018-03-24T23:15:00.615Z,25.00
2018-03-24T23:17:27.067Z,24.65
2018-03-24T23:19:53.932Z,22.42
2018-03-24T23:22:20.848Z,21.65
2018-03-24T23:24:47.458Z,21.75
2018-03-24T23:27:14.115Z,20.75
2018-03-24T23:29:40.947Z,19.92
2018-03-24T23:32:07.585Z,20.42
2018-03-24T23:34:34.448Z,20.48
2018-03-24T23:37:01.016Z,20.75
2018-03-24T23:39:27.793Z,20.45
2018-03-24T23:41:54.490Z,21.35
2018-03-24T23:44:21.130Z,21.42
2018-03-24T23:46:47.865Z,21.87
2018-03-24T23:49:14.525Z,20.42
2018-03-24T23:51:41.213Z,20.45
2018-03-24T23:54:07.946Z,19.55
2018-03-24T23:56:34.429Z,18.08
2018-03-24T23:59:01.202Z,17.08
